createdAt,value
2023-01-13T00:01:13.123Z,4.90
2023-01-13T00:03:40.344Z,5.32
2023-01-13T00:06:08.009Z,5.10
2023-01-13T00:08:35.724Z,4.60
2023-01-13T00:11:02.705Z,4.00
2023-01-13T00:13:29.615Z,3.60
2023-01-13T00:16:00.618Z,3.50
2023-01-13T00:18:27.915Z,3.35
2023-01-13T00:21:08.816Z,2.80
2023-01-13T00:23:36.097Z,2.97
2023-01-13T00:26:05.763Z,2.90
2023-01-13T00:28:33.067Z,3.08
2023-01-13T00:31:11.376Z,3.47
2023-01-13T00:33:38.746Z,3.08
2023-01-13T00:36:06.932Z,3.08
2023-01-13T00:38:35.847Z,2.87
2023-01-13T00:41:07.895Z,3.20
2023-01-13T00:43:36.023Z,3.20
2023-01-13T00:46:04.172Z,3.50
2023-01-13T00:48:31.286Z,3.05
2023-01-13T00:51:00.129Z,3.67
2023-01-13T00:53:27.803Z,3.25
2023-01-13T00:56:08.144Z,3.25
2023-01-13T00:58:35.696Z,3.30
2023-01-13T01:01:06.251Z,3.47
2023-01-13T01:03:33.732Z,3.65
2023-01-13T01:06:13.888Z,3.03
2023-01-13T01:08:41.392Z,3.83
2023-01-13T01:11:13.298Z,3.40
2023-01-13T01:13:40.594Z,2.97
2023-01-13T01:16:09.596Z,3.25
2023-01-13T01:18:38.712Z,3.65
2023-01-13T01:21:06.175Z,3.67
2023-01-13T01:23:33.708Z,3.55
2023-01-13T01:26:12.913Z,3.75
2023-01-13T01:28:40.074Z,4.35
2023-01-13T01:31:08.937Z,3.83
2023-01-13T01:33:35.820Z,3.72
2023-01-13T01:38:29.956Z,3.87
2023-01-13T01:40:56.881Z,3.40
2023-01-13T01:43:42.769Z,3.92
2023-01-13T01:46:10.054Z,3.42
2023-01-13T01:48:40.839Z,3.67
2023-01-13T01:51:10.412Z,4.03
2023-01-13T01:53:37.467Z,3.47
2023-01-13T01:56:04.406Z,3.85
2023-01-13T01:58:51.462Z,3.40
2023-01-13T02:01:18.909Z,3.73
2023-01-13T02:03:56.921Z,3.78
2023-01-13T02:06:24.462Z,3.83
2023-01-13T02:08:52.295Z,4.35
2023-01-13T02:11:52.206Z,4.25
2023-01-13T02:14:20.585Z,4.00
2023-01-13T02:17:13.525Z,4.00
2023-01-13T02:20:14.033Z,4.60
2023-01-13T02:23:36.411Z,4.00
2023-01-13T02:26:18.404Z,4.20
2023-01-13T02:29:33.075Z,4.40
2023-01-13T02:32:17.870Z,4.25
2023-01-13T02:34:53.636Z,3.97
2023-01-13T02:37:28.837Z,3.75
2023-01-13T02:40:02.873Z,4.00
2023-01-13T02:42:59.381Z,3.83
2023-01-13T02:45:29.780Z,4.22
2023-01-13T02:47:57.381Z,3.53
2023-01-13T02:50:32.125Z,4.45
2023-01-13T02:53:09.080Z,3.97
2023-01-13T02:55:39.124Z,4.03
2023-01-13T02:58:08.522Z,4.07
2023-01-13T03:00:36.838Z,4.22
2023-01-13T03:03:03.892Z,4.18
2023-01-13T03:05:32.156Z,4.45
2023-01-13T03:08:15.859Z,4.30
2023-01-13T03:10:48.085Z,4.10
2023-01-13T03:13:21.027Z,4.93
2023-01-13T03:16:12.544Z,4.57
2023-01-13T03:18:48.184Z,4.40
2023-01-13T03:21:59.929Z,5.03
2023-01-13T03:24:35.672Z,4.65
2023-01-13T03:27:24.157Z,4.78
2023-01-13T03:30:04.965Z,5.00
2023-01-13T03:32:41.751Z,4.95
2023-01-13T03:35:13.563Z,5.10
2023-01-13T03:37:46.011Z,5.20
2023-01-13T03:40:20.997Z,5.80
2023-01-13T03:43:11.099Z,5.03
2023-01-13T03:45:40.159Z,5.28
2023-01-13T03:48:14.296Z,4.78
2023-01-13T03:50:44.602Z,5.40
2023-01-13T03:53:15.461Z,5.70
2023-01-13T03:55:47.367Z,5.30
2023-01-13T03:58:43.896Z,5.05
2023-01-13T04:01:17.611Z,5.28
2023-01-13T04:03:52.312Z,4.55
2023-01-13T04:07:01.259Z,3.80
2023-01-13T04:09:38.093Z,4.12
2023-01-13T04:12:28.065Z,3.65
2023-01-13T04:14:55.620Z,4.82
2023-01-13T04:17:24.773Z,4.00
2023-01-13T04:19:51.605Z,4.75
2023-01-13T04:24:45.192Z,3.92
2023-01-13T04:27:12.009Z,4.65
2023-01-13T04:32:05.637Z,5.20
2023-01-13T04:34:32.552Z,5.10
2023-01-13T04:36:59.435Z,5.62
2023-01-13T04:39:26.287Z,5.68
2023-01-13T04:44:26.948Z,5.35
2023-01-13T04:46:54.085Z,5.25
2023-01-13T04:49:20.996Z,5.22
2023-01-13T04:51:48.109Z,5.05
2023-01-13T04:54:15.051Z,5.15
2023-01-13T04:56:42.063Z,5.07
2023-01-13T04:59:13.369Z,5.05
2023-01-13T05:01:41.211Z,4.93
2023-01-13T05:04:08.710Z,5.10
2023-01-13T05:06:35.976Z,5.22
2023-01-13T05:09:02.857Z,4.78
2023-01-13T05:11:48.392Z,5.28
2023-01-13T05:14:34.102Z,5.57
2023-01-13T05:17:00.960Z,5.00
2023-01-13T05:22:17.936Z,5.40
2023-01-13T05:25:03.680Z,5.00
2023-01-13T05:27:31.347Z,5.45
2023-01-13T05:29:58.670Z,5.40
2023-01-13T05:32:28.154Z,5.70
2023-01-13T05:34:56.020Z,5.15
2023-01-13T05:37:23.662Z,5.87
2023-01-13T05:40:09.235Z,6.10
2023-01-13T05:42:54.527Z,5.95
2023-01-13T05:45:21.779Z,7.15
2023-01-13T05:47:48.723Z,5.95
2023-01-13T05:50:16.061Z,5.72
2023-01-13T05:52:43.648Z,5.95
2023-01-13T05:55:11.485Z,5.53
2023-01-13T05:57:38.363Z,5.37
2023-01-13T06:00:05.960Z,5.57
2023-01-13T06:02:32.898Z,5.35
2023-01-13T06:04:59.927Z,5.25
2023-01-13T06:07:26.813Z,5.25
2023-01-13T06:09:54.661Z,5.70
2023-01-13T06:12:21.535Z,5.25
2023-01-13T06:14:48.406Z,5.75
2023-01-13T06:19:43.452Z,5.50
2023-01-13T06:22:27.241Z,5.47
2023-01-13T06:24:54.790Z,5.12
2023-01-13T06:27:22.850Z,5.00
2023-01-13T06:29:49.971Z,4.95
2023-01-13T06:32:32.272Z,5.60
2023-01-13T06:35:05.633Z,5.47
2023-01-13T06:37:33.356Z,5.05
2023-01-13T06:40:02.001Z,5.90
2023-01-13T06:42:48.944Z,5.70
2023-01-13T06:45:15.953Z,5.00
2023-01-13T06:47:43.581Z,5.70
2023-01-13T06:50:11.308Z,5.40
2023-01-13T06:52:38.146Z,5.15
2023-01-13T06:57:31.796Z,5.87
2023-01-13T07:02:26.170Z,5.47
2023-01-13T07:04:53.138Z,5.10
2023-01-13T07:09:46.667Z,5.47
2023-01-13T07:14:58.759Z,5.72
2023-01-13T07:17:25.640Z,5.37
2023-01-13T07:19:53.270Z,5.70
2023-01-13T07:22:20.194Z,5.43
2023-01-13T07:24:47.038Z,4.90
2023-01-13T07:29:40.679Z,5.65
2023-01-13T07:32:08.166Z,5.37
2023-01-13T07:34:35.138Z,5.47
2023-01-13T07:37:02.361Z,5.12
2023-01-13T07:39:29.213Z,5.03
2023-01-13T07:44:41.425Z,4.32
2023-01-13T07:47:10.613Z,4.40
2023-01-13T07:49:37.519Z,4.78
2023-01-13T07:52:04.656Z,4.57
2023-01-13T07:54:40.019Z,3.90
2023-01-13T07:57:08.120Z,3.90
2023-01-13T07:59:35.147Z,3.90
2023-01-13T08:02:02.138Z,3.28
2023-01-13T08:04:29.256Z,3.10
2023-01-13T08:06:56.119Z,3.55
2023-01-13T08:12:09.576Z,3.75
2023-01-13T08:14:36.495Z,3.95
2023-01-13T08:19:29.996Z,4.68
2023-01-13T08:24:23.941Z,4.43
2023-01-13T08:26:50.824Z,4.07
2023-01-13T08:29:17.799Z,3.95
2023-01-13T08:31:55.614Z,3.92
2023-01-13T08:34:22.608Z,3.80
2023-01-13T08:36:50.388Z,4.10
2023-01-13T08:39:18.735Z,4.10
2023-01-13T08:41:58.597Z,3.58
2023-01-13T08:44:29.975Z,3.40
2023-01-13T08:46:57.655Z,3.35
2023-01-13T08:49:24.749Z,3.85
2023-01-13T08:51:52.555Z,3.47
2023-01-13T08:54:19.840Z,2.75
2023-01-13T08:56:47.222Z,2.97
2023-01-13T08:59:19.043Z,3.70
2023-01-13T09:01:46.269Z,3.35
2023-01-13T09:04:26.457Z,3.17
2023-01-13T09:06:54.438Z,3.17
2023-01-13T09:09:23.088Z,3.35
2023-01-13T09:12:10.699Z,4.15
2023-01-13T09:14:38.729Z,2.37
2023-01-13T09:17:05.994Z,2.62
2023-01-13T09:19:32.900Z,2.30
2023-01-13T09:22:00.055Z,2.85
2023-01-13T09:24:27.122Z,2.25
2023-01-13T09:26:54.057Z,2.40
2023-01-13T09:29:20.916Z,2.42
2023-01-13T09:34:35.526Z,2.55
2023-01-13T09:37:02.816Z,2.12
2023-01-13T09:39:29.821Z,2.25
2023-01-13T09:42:17.530Z,2.37
2023-01-13T09:45:05.390Z,2.53
2023-01-13T09:51:09.439Z,2.33
2023-01-13T09:54:03.587Z,2.45
2023-01-13T09:56:30.461Z,2.37
2023-01-13T09:58:59.808Z,2.42
2023-01-13T10:02:12.886Z,2.30
2023-01-13T10:04:39.802Z,2.53
2023-01-13T10:07:14.259Z,2.40
2023-01-13T10:09:51.988Z,2.12
2023-01-13T10:12:42.507Z,2.50
2023-01-13T10:15:18.106Z,2.10
2023-01-13T10:17:51.376Z,2.40
2023-01-13T10:20:36.555Z,2.50
2023-01-13T10:23:12.540Z,2.58
2023-01-13T10:25:48.568Z,2.35
2023-01-13T10:28:19.489Z,2.40
2023-01-13T10:30:47.848Z,2.40
2023-01-13T10:33:18.844Z,2.50
2023-01-13T10:35:51.648Z,2.60
2023-01-13T10:38:24.338Z,2.30
2023-01-13T10:40:59.391Z,2.45
2023-01-13T10:43:27.639Z,2.40
2023-01-13T10:45:58.881Z,2.83
2023-01-13T10:48:34.179Z,2.62
2023-01-13T10:51:50.525Z,2.72
2023-01-13T10:54:22.492Z,2.50
2023-01-13T10:56:50.527Z,2.30
2023-01-13T10:59:22.381Z,2.67
2023-01-13T11:02:25.401Z,2.58
2023-01-13T11:05:10.232Z,3.20
2023-01-13T11:07:40.870Z,2.72
2023-01-13T11:10:27.625Z,2.50
2023-01-13T11:13:02.468Z,2.40
2023-01-13T11:15:36.906Z,2.47
2023-01-13T11:18:36.204Z,2.40
2023-01-13T11:21:16.332Z,2.85
2023-01-13T11:23:50.681Z,2.42
2023-01-13T11:26:27.043Z,2.78
2023-01-13T11:29:01.379Z,2.47
2023-01-13T11:31:36.331Z,2.45
2023-01-13T11:34:08.648Z,2.78
2023-01-13T11:36:40.184Z,2.50
2023-01-13T11:39:44.170Z,2.85
2023-01-13T11:42:37.147Z,2.60
2023-01-13T11:45:20.748Z,3.30
2023-01-13T11:47:49.802Z,2.95
2023-01-13T11:50:34.462Z,3.12
2023-01-13T11:56:08.784Z,3.20
2023-01-13T11:59:11.560Z,2.47
2023-01-13T12:01:38.417Z,3.03
2023-01-13T12:04:23.707Z,4.10
2023-01-13T12:07:07.568Z,3.62
2023-01-13T12:10:11.597Z,4.32
2023-01-13T12:12:51.937Z,3.80
2023-01-13T12:15:22.407Z,3.50
2023-01-13T12:17:51.938Z,3.15
2023-01-13T12:20:27.750Z,3.20
2023-01-13T12:22:56.188Z,3.80
2023-01-13T12:25:44.310Z,4.55
2023-01-13T12:28:20.960Z,4.85
2023-01-13T12:30:54.059Z,5.15
2023-01-13T12:36:36.592Z,4.10
2023-01-13T12:39:12.465Z,4.57
2023-01-13T12:42:08.716Z,5.68
2023-01-13T12:44:35.583Z,4.53
2023-01-13T12:47:02.634Z,4.30
2023-01-13T12:49:34.820Z,4.25
2023-01-13T12:52:09.959Z,4.62
2023-01-13T12:54:39.641Z,4.80
2023-01-13T12:57:25.921Z,4.95
2023-01-13T13:00:13.533Z,4.80
2023-01-13T13:02:41.903Z,5.00
2023-01-13T13:05:14.923Z,6.45
2023-01-13T13:07:55.283Z,5.28
2023-01-13T13:10:34.472Z,6.32
2023-01-13T13:13:19.002Z,6.20
2023-01-13T13:15:50.450Z,5.75
2023-01-13T13:18:17.268Z,5.30
2023-01-13T13:21:06.164Z,4.87
2023-01-13T13:23:47.924Z,5.65
2023-01-13T13:26:26.911Z,5.35
2023-01-13T13:29:13.168Z,5.10
2023-01-13T13:31:55.197Z,5.37
2023-01-13T13:34:43.988Z,5.50
2023-01-13T13:38:03.600Z,6.90
2023-01-13T13:43:35.733Z,5.28
2023-01-13T13:46:21.460Z,6.47
2023-01-13T13:48:54.889Z,6.97
2023-01-13T13:51:25.559Z,7.53
2023-01-13T13:53:53.014Z,7.75
2023-01-13T13:56:23.579Z,6.55
2023-01-13T13:58:50.684Z,6.15
2023-01-13T14:01:28.010Z,6.03
2023-01-13T14:04:10.149Z,5.82
2023-01-13T14:06:37.036Z,6.47
2023-01-13T14:09:04.282Z,6.43
2023-01-13T14:11:33.399Z,5.85
2023-01-13T14:14:12.474Z,6.07
2023-01-13T14:16:40.297Z,6.50
2023-01-13T14:19:25.820Z,7.45
2023-01-13T14:21:53.835Z,8.32
2023-01-13T14:24:22.595Z,8.18
2023-01-13T14:26:53.380Z,8.88
2023-01-13T14:29:23.113Z,7.20
2023-01-13T14:34:35.963Z,20.05
2023-01-13T14:37:25.907Z,16.45
2023-01-13T14:39:52.802Z,6.30
2023-01-13T14:42:20.950Z,8.80
2023-01-13T14:44:50.045Z,11.02
2023-01-13T14:47:24.922Z,8.18
2023-01-13T14:50:28.305Z,8.45
2023-01-13T14:52:57.244Z,9.55
2023-01-13T14:55:37.513Z,10.07
2023-01-13T14:58:25.612Z,11.65
2023-01-13T15:00:53.484Z,10.50
2023-01-13T15:03:21.576Z,9.90
2023-01-13T15:05:50.682Z,10.88
2023-01-13T15:08:34.508Z,13.95
2023-01-13T15:11:03.660Z,13.02
2023-01-13T15:13:35.780Z,13.52
2023-01-13T15:16:06.200Z,12.85
2023-01-13T15:18:34.395Z,14.68
2023-01-13T15:21:01.320Z,14.73
2023-01-13T15:23:28.224Z,17.48
2023-01-13T15:25:55.225Z,24.87
2023-01-13T15:28:24.769Z,36.35
2023-01-13T15:30:53.571Z,23.55
2023-01-13T15:33:21.547Z,30.50
2023-01-13T15:35:52.924Z,24.52
2023-01-13T15:38:22.050Z,18.65
2023-01-13T15:40:49.923Z,20.58
2023-01-13T15:43:40.437Z,15.75
2023-01-13T15:46:31.668Z,16.95
2023-01-13T15:49:19.416Z,16.70
2023-01-13T15:51:46.260Z,16.87
2023-01-13T15:54:13.348Z,16.37
2023-01-13T15:59:27.691Z,14.25
2023-01-13T16:01:54.863Z,17.50
2023-01-13T16:04:21.819Z,14.50
2023-01-13T16:06:48.805Z,15.82
2023-01-13T16:09:17.010Z,14.05
2023-01-13T16:11:44.131Z,15.48
2023-01-13T16:14:10.979Z,15.40
2023-01-13T16:16:37.919Z,15.77
2023-01-13T16:19:05.137Z,15.88
2023-01-13T16:21:31.989Z,14.98
2023-01-13T16:23:58.863Z,13.45
2023-01-13T16:26:29.355Z,13.88
2023-01-13T16:28:58.006Z,14.15
2023-01-13T16:31:33.257Z,14.52
2023-01-13T16:34:01.884Z,14.32
2023-01-13T16:36:31.464Z,14.35
2023-01-13T16:38:58.353Z,14.27
2023-01-13T16:41:25.378Z,13.52
2023-01-13T16:43:52.801Z,13.88
2023-01-13T16:46:25.911Z,14.23
2023-01-13T16:49:01.718Z,15.45
2023-01-13T16:51:28.724Z,15.52
2023-01-13T16:53:55.564Z,17.45
2023-01-13T16:58:54.079Z,16.73
2023-01-13T17:01:24.022Z,17.67
2023-01-13T17:03:51.783Z,18.92
2023-01-13T17:06:29.061Z,19.25
2023-01-13T17:09:01.621Z,19.37
2023-01-13T17:11:28.485Z,17.23
2023-01-13T17:13:55.309Z,17.02
2023-01-13T17:18:49.389Z,17.30
2023-01-13T17:21:17.212Z,17.50
2023-01-13T17:23:44.569Z,15.98
2023-01-13T17:26:26.074Z,16.83
2023-01-13T17:28:52.910Z,18.05
2023-01-13T17:31:19.799Z,18.87
2023-01-13T17:33:46.667Z,18.60
2023-01-13T17:36:13.551Z,19.23
2023-01-13T17:38:40.378Z,19.90
2023-01-13T17:43:34.011Z,20.50
2023-01-13T17:46:01.030Z,21.80
2023-01-13T17:48:27.931Z,20.00
2023-01-13T17:50:54.852Z,22.58
2023-01-13T17:53:21.700Z,22.33
2023-01-13T17:58:19.896Z,19.90
2023-01-13T18:00:47.284Z,22.02
2023-01-13T18:03:14.314Z,22.92
2023-01-13T18:05:41.383Z,21.00
2023-01-13T18:08:09.234Z,20.90
2023-01-13T18:10:36.311Z,21.05
2023-01-13T18:13:03.732Z,20.80
2023-01-13T18:15:31.012Z,22.05
2023-01-13T18:17:57.882Z,21.73
2023-01-13T18:20:43.485Z,20.45
2023-01-13T18:23:38.138Z,23.02
2023-01-13T18:26:39.269Z,22.90
2023-01-13T18:29:06.279Z,26.92
2023-01-13T18:31:33.205Z,27.42
2023-01-13T18:34:00.119Z,28.02
2023-01-13T18:36:27.039Z,29.37
2023-01-13T18:38:53.876Z,31.08
2023-01-13T18:44:05.939Z,27.73
2023-01-13T18:46:32.879Z,28.20
2023-01-13T18:49:00.231Z,28.42
2023-01-13T18:51:27.105Z,30.37
2023-01-13T18:53:54.164Z,30.20
2023-01-13T18:56:21.349Z,28.30
2023-01-13T18:58:54.365Z,26.12
2023-01-13T19:01:25.782Z,28.27
2023-01-13T19:04:05.177Z,27.20
2023-01-13T19:06:33.728Z,28.67
2023-01-13T19:09:08.348Z,27.33
2023-01-13T19:11:36.388Z,29.30
2023-01-13T19:14:04.046Z,29.90
2023-01-13T19:16:30.891Z,27.00
2023-01-13T19:18:57.740Z,27.27
2023-01-13T19:21:25.432Z,27.62
2023-01-13T19:23:56.259Z,26.80
2023-01-13T19:26:23.155Z,28.65
2023-01-13T19:28:50.698Z,27.15
2023-01-13T19:31:20.519Z,27.35
2023-01-13T19:33:47.449Z,27.85
2023-01-13T19:36:14.421Z,26.15
2023-01-13T19:38:41.269Z,25.62
2023-01-13T19:41:28.199Z,24.98
2023-01-13T19:44:14.856Z,27.02
2023-01-13T19:46:41.767Z,24.77
2023-01-13T19:49:08.662Z,25.30
2023-01-13T19:51:35.552Z,24.52
2023-01-13T19:54:02.610Z,23.40
2023-01-13T19:56:30.808Z,22.10
2023-01-13T19:58:57.625Z,21.85
2023-01-13T20:04:06.836Z,20.85
2023-01-13T20:06:33.753Z,21.35
2023-01-13T20:09:00.633Z,25.30
2023-01-13T20:11:31.934Z,28.80
2023-01-13T20:13:59.523Z,40.47
2023-01-13T20:16:27.626Z,36.85
2023-01-13T20:18:55.007Z,36.40
2023-01-13T20:21:22.049Z,36.15
2023-01-13T20:23:53.113Z,35.90
2023-01-13T20:26:20.996Z,31.92
2023-01-13T20:28:47.952Z,30.37
2023-01-13T20:31:15.709Z,26.23
2023-01-13T20:33:42.894Z,23.35
2023-01-13T20:36:27.233Z,23.12
2023-01-13T20:38:59.386Z,27.55
2023-01-13T20:41:45.157Z,25.45
2023-01-13T20:44:12.739Z,20.20
2023-01-13T20:46:43.403Z,20.73
2023-01-13T20:49:11.122Z,18.27
2023-01-13T20:51:38.533Z,18.10
2023-01-13T20:54:05.474Z,21.55
2023-01-13T20:56:32.323Z,22.40
2023-01-13T21:01:26.867Z,21.95
2023-01-13T21:03:57.271Z,20.83
2023-01-13T21:06:24.369Z,24.37
2023-01-13T21:08:53.308Z,21.45
2023-01-13T21:11:41.739Z,25.05
2023-01-13T21:14:35.120Z,21.80
2023-01-13T21:17:02.475Z,23.05
2023-01-13T21:19:29.332Z,26.40
2023-01-13T21:24:24.657Z,23.98
2023-01-13T21:26:55.361Z,23.58
2023-01-13T21:29:23.174Z,23.33
2023-01-13T21:31:50.119Z,21.65
2023-01-13T21:34:18.190Z,23.42
2023-01-13T21:36:45.145Z,21.20
2023-01-13T21:39:14.237Z,24.35
2023-01-13T21:41:59.651Z,22.73
2023-01-13T21:44:45.241Z,21.73
2023-01-13T21:47:35.310Z,19.73
2023-01-13T21:50:02.644Z,20.40
2023-01-13T21:52:29.538Z,21.27
2023-01-13T21:55:15.304Z,21.27
2023-01-13T21:57:45.252Z,20.77
2023-01-13T22:00:12.592Z,20.30
2023-01-13T22:02:39.688Z,20.23
2023-01-13T22:05:07.890Z,19.50
2023-01-13T22:07:36.171Z,19.60
2023-01-13T22:10:04.575Z,20.15
2023-01-13T22:12:31.514Z,19.12
2023-01-13T22:14:58.423Z,19.67
2023-01-13T22:17:26.915Z,20.42
2023-01-13T22:19:55.075Z,20.52
2023-01-13T22:22:22.303Z,19.12
2023-01-13T22:24:50.595Z,18.62
2023-01-13T22:27:21.465Z,18.70
2023-01-13T22:29:49.740Z,19.05
2023-01-13T22:32:17.162Z,18.95
2023-01-13T22:34:44.380Z,19.00
2023-01-13T22:37:11.713Z,18.05
2023-01-13T22:39:39.036Z,17.95
2023-01-13T22:42:06.183Z,18.00
2023-01-13T22:44:33.994Z,20.20
2023-01-13T22:47:00.881Z,18.23
2023-01-13T22:49:27.806Z,18.80
2023-01-13T22:51:54.735Z,18.80
2023-01-13T22:54:21.651Z,18.65
2023-01-13T22:56:48.482Z,18.70
2023-01-13T23:01:43.306Z,18.42
2023-01-13T23:04:13.230Z,18.70
2023-01-13T23:06:40.880Z,18.23
2023-01-13T23:09:08.255Z,17.50
2023-01-13T23:11:35.516Z,18.67
2023-01-13T23:14:06.542Z,18.73
2023-01-13T23:16:38.392Z,18.50
2023-01-13T23:19:06.732Z,18.92
2023-01-13T23:21:36.690Z,18.23
2023-01-13T23:24:04.929Z,17.52
2023-01-13T23:26:31.996Z,16.52
2023-01-13T23:29:08.732Z,15.40
2023-01-13T23:31:35.771Z,16.52
2023-01-13T23:34:02.856Z,15.20
2023-01-13T23:36:30.247Z,15.93
2023-01-13T23:38:58.768Z,14.20
2023-01-13T23:41:26.762Z,14.73
2023-01-13T23:43:58.660Z,15.20
2023-01-13T23:46:26.493Z,14.18
2023-01-13T23:48:55.184Z,14.32
2023-01-13T23:51:22.402Z,13.52
2023-01-13T23:53:50.234Z,14.70
2023-01-13T23:56:20.361Z,13.65
2023-01-13T23:58:47.402Z,14.02
